sensor_id;sensor_type;location;lat;lon;timestamp;temperature;humidity
65972;SHT31;52726;48.852;9.152;2022-10-18T00:01:38;13.21;94.89
65972;SHT31;52726;48.852;9.152;2022-10-18T00:04:07;13.24;95.32
65972;SHT31;52726;48.852;9.152;2022-10-18T00:06:32;13.24;95.19
65972;SHT31;52726;48.852;9.152;2022-10-18T00:08:57;13.21;95.06
65972;SHT31;52726;48.852;9.152;2022-10-18T00:11:23;13.18;95.24
65972;SHT31;52726;48.852;9.152;2022-10-18T00:13:48;13.12;94.91
65972;SHT31;52726;48.852;9.152;2022-10-18T00:16:15;13.10;95.10
65972;SHT31;52726;48.852;9.152;2022-10-18T00:18:41;13.15;95.00
65972;SHT31;52726;48.852;9.152;2022-10-18T00:21:13;13.11;95.17
65972;SHT31;52726;48.852;9.152;2022-10-18T00:23:39;13.04;94.94
65972;SHT31;52726;48.852;9.152;2022-10-18T00:26:08;13.03;95.23
65972;SHT31;52726;48.852;9.152;2022-10-18T00:28:34;12.98;95.17
65972;SHT31;52726;48.852;9.152;2022-10-18T00:31:17;12.97;95.25
65972;SHT31;52726;48.852;9.152;2022-10-18T00:33:44;12.93;95.17
65972;SHT31;52726;48.852;9.152;2022-10-18T00:36:10;12.91;95.35
65972;SHT31;52726;48.852;9.152;2022-10-18T00:38:36;12.91;95.48
65972;SHT31;52726;48.852;9.152;2022-10-18T00:41:02;12.93;95.42
65972;SHT31;52726;48.852;9.152;2022-10-18T00:43:28;12.97;95.67
65972;SHT31;52726;48.852;9.152;2022-10-18T00:45:53;12.98;95.78
65972;SHT31;52726;48.852;9.152;2022-10-18T00:48:19;13.06;96.27
65972;SHT31;52726;48.852;9.152;2022-10-18T00:50:46;13.07;96.07
65972;SHT31;52726;48.852;9.152;2022-10-18T00:53:15;13.07;96.05
65972;SHT31;52726;48.852;9.152;2022-10-18T00:55:41;13.14;96.23
65972;SHT31;52726;48.852;9.152;2022-10-18T00:58:07;13.12;96.06
65972;SHT31;52726;48.852;9.152;2022-10-18T01:00:33;13.10;95.89
65972;SHT31;52726;48.852;9.152;2022-10-18T01:03:03;13.11;95.73
65972;SHT31;52726;48.852;9.152;2022-10-18T01:05:29;13.15;96.13
65972;SHT31;52726;48.852;9.152;2022-10-18T01:10:58;13.21;96.19
65972;SHT31;52726;48.852;9.152;2022-10-18T01:16:26;13.25;95.99
65972;SHT31;52726;48.852;9.152;2022-10-18T01:19:02;13.25;95.86
65972;SHT31;52726;48.852;9.152;2022-10-18T01:21:41;13.27;95.95
65972;SHT31;52726;48.852;9.152;2022-10-18T01:30:00;13.34;95.93
65972;SHT31;52726;48.852;9.152;2022-10-18T01:32:33;13.38;96.07
65972;SHT31;52726;48.852;9.152;2022-10-18T01:35:03;13.39;96.04
65972;SHT31;52726;48.852;9.152;2022-10-18T01:37:31;13.41;95.80
65972;SHT31;52726;48.852;9.152;2022-10-18T01:40:02;13.46;96.02
65972;SHT31;52726;48.852;9.152;2022-10-18T01:42:31;13.46;95.96
65972;SHT31;52726;48.852;9.152;2022-10-18T01:44:57;13.49;95.96
65972;SHT31;52726;48.852;9.152;2022-10-18T01:47:23;13.51;95.70
65972;SHT31;52726;48.852;9.152;2022-10-18T01:49:57;13.52;95.83
65972;SHT31;52726;48.852;9.152;2022-10-18T01:52:22;13.51;95.68
65972;SHT31;52726;48.852;9.152;2022-10-18T01:54:47;13.56;95.81
65972;SHT31;52726;48.852;9.152;2022-10-18T02:05:02;13.54;95.41
65972;SHT31;52726;48.852;9.152;2022-10-18T02:08:16;13.54;95.55
65972;SHT31;52726;48.852;9.152;2022-10-18T02:10:48;13.55;95.34
65972;SHT31;52726;48.852;9.152;2022-10-18T02:13:17;13.55;95.33
65972;SHT31;52726;48.852;9.152;2022-10-18T02:15:46;13.56;95.21
65972;SHT31;52726;48.852;9.152;2022-10-18T02:18:36;13.58;95.31
65972;SHT31;52726;48.852;9.152;2022-10-18T02:21:04;13.55;95.37
65972;SHT31;52726;48.852;9.152;2022-10-18T02:23:32;13.55;95.23
65972;SHT31;52726;48.852;9.152;2022-10-18T02:25:58;13.56;95.20
65972;SHT31;52726;48.852;9.152;2022-10-18T02:28:23;13.55;95.31
65972;SHT31;52726;48.852;9.152;2022-10-18T02:33:38;13.58;95.19
65972;SHT31;52726;48.852;9.152;2022-10-18T02:36:32;13.58;95.07
65972;SHT31;52726;48.852;9.152;2022-10-18T02:39:03;13.62;94.79
65972;SHT31;52726;48.852;9.152;2022-10-18T02:41:31;13.59;94.81
65972;SHT31;52726;48.852;9.152;2022-10-18T02:43:57;13.58;94.63
65972;SHT31;52726;48.852;9.152;2022-10-18T02:46:22;13.59;94.79
65972;SHT31;52726;48.852;9.152;2022-10-18T02:48:48;13.58;94.64
65972;SHT31;52726;48.852;9.152;2022-10-18T02:51:13;13.59;94.34
65972;SHT31;52726;48.852;9.152;2022-10-18T02:53:38;13.59;94.50
65972;SHT31;52726;48.852;9.152;2022-10-18T02:56:04;13.62;94.42
65972;SHT31;52726;48.852;9.152;2022-10-18T02:58:30;13.65;93.89
65972;SHT31;52726;48.852;9.152;2022-10-18T03:00:55;13.67;93.99
65972;SHT31;52726;48.852;9.152;2022-10-18T03:03:20;13.70;94.00
65972;SHT31;52726;48.852;9.152;2022-10-18T03:05:50;13.73;93.81
65972;SHT31;52726;48.852;9.152;2022-10-18T03:08:15;13.75;93.56
65972;SHT31;52726;48.852;9.152;2022-10-18T03:10:44;13.72;93.49
65972;SHT31;52726;48.852;9.152;2022-10-18T03:13:10;13.75;93.40
65972;SHT31;52726;48.852;9.152;2022-10-18T03:15:36;13.77;93.50
65972;SHT31;52726;48.852;9.152;2022-10-18T03:18:01;13.73;93.47
65972;SHT31;52726;48.852;9.152;2022-10-18T03:20:27;13.75;93.29
65972;SHT31;52726;48.852;9.152;2022-10-18T03:22:52;13.76;93.31
65972;SHT31;52726;48.852;9.152;2022-10-18T03:25:17;13.73;93.43
65972;SHT31;52726;48.852;9.152;2022-10-18T03:27:43;13.79;93.14
65972;SHT31;52726;48.852;9.152;2022-10-18T03:30:08;13.75;92.89
65972;SHT31;52726;48.852;9.152;2022-10-18T03:32:36;13.76;92.79
65972;SHT31;52726;48.852;9.152;2022-10-18T03:35:03;13.73;92.51
65972;SHT31;52726;48.852;9.152;2022-10-18T03:37:28;13.76;92.58
65972;SHT31;52726;48.852;9.152;2022-10-18T03:39:53;13.75;92.23
65972;SHT31;52726;48.852;9.152;2022-10-18T03:42:19;13.67;92.61
65972;SHT31;52726;48.852;9.152;2022-10-18T03:44:44;13.62;92.97
65972;SHT31;52726;48.852;9.152;2022-10-18T03:47:09;13.56;93.01
65972;SHT31;52726;48.852;9.152;2022-10-18T03:49:36;13.55;92.77
65972;SHT31;52726;48.852;9.152;2022-10-18T03:52:01;13.52;92.75
65972;SHT31;52726;48.852;9.152;2022-10-18T03:54:26;13.52;92.58
65972;SHT31;52726;48.852;9.152;2022-10-18T03:56:51;13.51;92.61
65972;SHT31;52726;48.852;9.152;2022-10-18T03:59:17;13.49;92.53
65972;SHT31;52726;48.852;9.152;2022-10-18T04:01:42;13.46;92.53
65972;SHT31;52726;48.852;9.152;2022-10-18T04:04:08;13.49;92.48
65972;SHT31;52726;48.852;9.152;2022-10-18T04:06:33;13.45;92.70
65972;SHT31;52726;48.852;9.152;2022-10-18T04:08:58;13.44;92.80
65972;SHT31;52726;48.852;9.152;2022-10-18T04:11:24;13.45;92.98
65972;SHT31;52726;48.852;9.152;2022-10-18T04:13:49;13.39;93.02
65972;SHT31;52726;48.852;9.152;2022-10-18T04:16:14;13.35;93.15
65972;SHT31;52726;48.852;9.152;2022-10-18T04:18:40;13.39;93.12
65972;SHT31;52726;48.852;9.152;2022-10-18T04:21:05;13.37;93.19
65972;SHT31;52726;48.852;9.152;2022-10-18T04:23:30;13.38;93.18
65972;SHT31;52726;48.852;9.152;2022-10-18T04:25:56;13.39;93.31
65972;SHT31;52726;48.852;9.152;2022-10-18T04:28:21;13.42;93.50
65972;SHT31;52726;48.852;9.152;2022-10-18T04:30:51;13.45;93.30
65972;SHT31;52726;48.852;9.152;2022-10-18T04:33:17;13.51;92.89
65972;SHT31;52726;48.852;9.152;2022-10-18T04:35:42;13.54;92.59
65972;SHT31;52726;48.852;9.152;2022-10-18T04:38:07;13.61;92.05
65972;SHT31;52726;48.852;9.152;2022-10-18T04:40:33;13.65;91.63
65972;SHT31;52726;48.852;9.152;2022-10-18T04:42:58;13.69;92.17
65972;SHT31;52726;48.852;9.152;2022-10-18T04:45:24;13.69;92.35
65972;SHT31;52726;48.852;9.152;2022-10-18T04:47:49;13.69;92.41
65972;SHT31;52726;48.852;9.152;2022-10-18T04:50:15;13.67;92.27
65972;SHT31;52726;48.852;9.152;2022-10-18T04:52:40;13.69;92.63
65972;SHT31;52726;48.852;9.152;2022-10-18T04:55:06;13.72;92.83
65972;SHT31;52726;48.852;9.152;2022-10-18T04:57:31;13.70;93.06
65972;SHT31;52726;48.852;9.152;2022-10-18T04:59:56;13.65;93.25
65972;SHT31;52726;48.852;9.152;2022-10-18T05:02:22;13.58;93.44
65972;SHT31;52726;48.852;9.152;2022-10-18T05:04:47;13.49;93.47
65972;SHT31;52726;48.852;9.152;2022-10-18T05:07:12;13.49;93.36
65972;SHT31;52726;48.852;9.152;2022-10-18T05:09:38;13.44;93.29
65972;SHT31;52726;48.852;9.152;2022-10-18T05:12:03;13.38;93.47
65972;SHT31;52726;48.852;9.152;2022-10-18T05:14:29;13.35;93.37
65972;SHT31;52726;48.852;9.152;2022-10-18T05:16:54;13.35;93.68
65972;SHT31;52726;48.852;9.152;2022-10-18T05:19:19;13.32;93.80
65972;SHT31;52726;48.852;9.152;2022-10-18T05:21:45;13.32;93.74
65972;SHT31;52726;48.852;9.152;2022-10-18T05:24:11;13.31;93.68
65972;SHT31;52726;48.852;9.152;2022-10-18T05:26:36;13.25;93.59
65972;SHT31;52726;48.852;9.152;2022-10-18T05:29:02;13.25;93.46
65972;SHT31;52726;48.852;9.152;2022-10-18T05:31:30;13.28;93.71
65972;SHT31;52726;48.852;9.152;2022-10-18T05:33:55;13.35;93.22
65972;SHT31;52726;48.852;9.152;2022-10-18T05:36:21;13.39;92.99
65972;SHT31;52726;48.852;9.152;2022-10-18T05:38:46;13.39;92.83
65972;SHT31;52726;48.852;9.152;2022-10-18T05:41:13;13.44;92.61
65972;SHT31;52726;48.852;9.152;2022-10-18T05:43:39;13.55;92.40
65972;SHT31;52726;48.852;9.152;2022-10-18T05:46:05;13.65;91.91
65972;SHT31;52726;48.852;9.152;2022-10-18T05:48:32;13.73;91.59
65972;SHT31;52726;48.852;9.152;2022-10-18T05:50:58;13.82;91.34
65972;SHT31;52726;48.852;9.152;2022-10-18T05:53:24;13.99;90.54
65972;SHT31;52726;48.852;9.152;2022-10-18T05:55:49;14.11;90.21
65972;SHT31;52726;48.852;9.152;2022-10-18T05:58:18;14.25;89.78
65972;SHT31;52726;48.852;9.152;2022-10-18T06:00:43;14.37;88.88
65972;SHT31;52726;48.852;9.152;2022-10-18T06:03:09;14.49;88.05
65972;SHT31;52726;48.852;9.152;2022-10-18T06:05:34;14.55;88.45
65972;SHT31;52726;48.852;9.152;2022-10-18T06:08:00;14.65;87.49
65972;SHT31;52726;48.852;9.152;2022-10-18T06:10:25;14.73;87.64
65972;SHT31;52726;48.852;9.152;2022-10-18T06:12:50;14.82;87.05
65972;SHT31;52726;48.852;9.152;2022-10-18T06:15:16;14.90;86.77
65972;SHT31;52726;48.852;9.152;2022-10-18T06:17:41;14.96;86.88
65972;SHT31;52726;48.852;9.152;2022-10-18T06:20:07;15.00;87.05
65972;SHT31;52726;48.852;9.152;2022-10-18T06:22:33;15.07;86.76
65972;SHT31;52726;48.852;9.152;2022-10-18T06:24:58;15.13;86.79
65972;SHT31;52726;48.852;9.152;2022-10-18T06:27:23;15.16;86.41
65972;SHT31;52726;48.852;9.152;2022-10-18T06:29:49;15.22;86.51
65972;SHT31;52726;48.852;9.152;2022-10-18T06:32:14;15.30;87.74
65972;SHT31;52726;48.852;9.152;2022-10-18T06:34:40;15.37;87.15
65972;SHT31;52726;48.852;9.152;2022-10-18T06:37:05;15.44;87.13
65972;SHT31;52726;48.852;9.152;2022-10-18T06:39:31;15.66;86.46
65972;SHT31;52726;48.852;9.152;2022-10-18T06:41:57;15.68;85.67
65972;SHT31;52726;48.852;9.152;2022-10-18T06:46:49;15.69;85.43
65972;SHT31;52726;48.852;9.152;2022-10-18T06:49:15;15.68;85.54
65972;SHT31;52726;48.852;9.152;2022-10-18T06:51:42;15.77;85.35
65972;SHT31;52726;48.852;9.152;2022-10-18T06:54:08;15.91;83.68
65972;SHT31;52726;48.852;9.152;2022-10-18T06:56:34;15.99;83.85
65972;SHT31;52726;48.852;9.152;2022-10-18T06:58:59;16.13;82.92
65972;SHT31;52726;48.852;9.152;2022-10-18T07:01:25;16.16;83.26
65972;SHT31;52726;48.852;9.152;2022-10-18T07:03:53;16.22;82.73
65972;SHT31;52726;48.852;9.152;2022-10-18T07:06:19;16.22;82.87
65972;SHT31;52726;48.852;9.152;2022-10-18T07:08:46;16.26;82.67
65972;SHT31;52726;48.852;9.152;2022-10-18T07:11:23;16.29;82.90
65972;SHT31;52726;48.852;9.152;2022-10-18T07:13:49;16.29;83.03
65972;SHT31;52726;48.852;9.152;2022-10-18T07:16:17;16.29;83.17
65972;SHT31;52726;48.852;9.152;2022-10-18T07:18:45;16.34;82.78
65972;SHT31;52726;48.852;9.152;2022-10-18T07:21:12;16.40;82.41
65972;SHT31;52726;48.852;9.152;2022-10-18T07:23:40;16.49;81.70
65972;SHT31;52726;48.852;9.152;2022-10-18T07:28:41;16.47;83.04
65972;SHT31;52726;48.852;9.152;2022-10-18T07:31:08;16.47;82.98
65972;SHT31;52726;48.852;9.152;2022-10-18T07:33:34;16.49;82.98
65972;SHT31;52726;48.852;9.152;2022-10-18T07:36:04;16.50;82.34
65972;SHT31;52726;48.852;9.152;2022-10-18T07:38:30;16.61;81.70
65972;SHT31;52726;48.852;9.152;2022-10-18T07:40:59;16.67;81.68
65972;SHT31;52726;48.852;9.152;2022-10-18T07:43:25;16.74;81.99
65972;SHT31;52726;48.852;9.152;2022-10-18T07:45:52;16.82;81.58
65972;SHT31;52726;48.852;9.152;2022-10-18T07:48:17;16.95;80.74
65972;SHT31;52726;48.852;9.152;2022-10-18T07:50:43;17.04;81.01
65972;SHT31;52726;48.852;9.152;2022-10-18T07:53:08;17.14;80.45
65972;SHT31;52726;48.852;9.152;2022-10-18T07:55:33;17.20;80.21
65972;SHT31;52726;48.852;9.152;2022-10-18T07:57:59;17.29;80.14
65972;SHT31;52726;48.852;9.152;2022-10-18T08:00:25;17.39;79.60
65972;SHT31;52726;48.852;9.152;2022-10-18T08:02:55;17.49;79.50
65972;SHT31;52726;48.852;9.152;2022-10-18T08:05:21;17.63;78.88
65972;SHT31;52726;48.852;9.152;2022-10-18T08:07:46;17.67;78.14
65972;SHT31;52726;48.852;9.152;2022-10-18T08:10:11;17.67;78.60
65972;SHT31;52726;48.852;9.152;2022-10-18T08:12:37;17.67;79.05
65972;SHT31;52726;48.852;9.152;2022-10-18T08:15:03;17.66;78.90
65972;SHT31;52726;48.852;9.152;2022-10-18T08:17:28;17.67;78.66
65972;SHT31;52726;48.852;9.152;2022-10-18T08:19:53;17.69;79.12
65972;SHT31;52726;48.852;9.152;2022-10-18T08:22:19;17.73;78.31
65972;SHT31;52726;48.852;9.152;2022-10-18T08:24:47;17.75;79.85
65972;SHT31;52726;48.852;9.152;2022-10-18T08:27:13;17.77;78.88
65972;SHT31;52726;48.852;9.152;2022-10-18T08:29:39;17.82;78.71
65972;SHT31;52726;48.852;9.152;2022-10-18T08:32:04;17.87;79.00
65972;SHT31;52726;48.852;9.152;2022-10-18T08:34:32;17.98;78.55
65972;SHT31;52726;48.852;9.152;2022-10-18T08:36:57;18.06;77.10
65972;SHT31;52726;48.852;9.152;2022-10-18T08:39:23;18.11;77.40
65972;SHT31;52726;48.852;9.152;2022-10-18T08:44:53;18.22;77.54
65972;SHT31;52726;48.852;9.152;2022-10-18T08:47:33;18.26;78.02
65972;SHT31;52726;48.852;9.152;2022-10-18T08:50:28;18.33;77.59
65972;SHT31;52726;48.852;9.152;2022-10-18T08:53:00;18.63;76.11
65972;SHT31;52726;48.852;9.152;2022-10-18T08:55:38;18.98;75.13
65972;SHT31;52726;48.852;9.152;2022-10-18T08:58:24;19.07;75.28
65972;SHT31;52726;48.852;9.152;2022-10-18T09:06:31;19.51;77.25
65972;SHT31;52726;48.852;9.152;2022-10-18T09:11:35;19.31;77.20
65972;SHT31;52726;48.852;9.152;2022-10-18T09:22:12;18.12;77.96
65972;SHT31;52726;48.852;9.152;2022-10-18T09:24:40;17.88;79.22
65972;SHT31;52726;48.852;9.152;2022-10-18T09:27:16;17.98;79.37
65972;SHT31;52726;48.852;9.152;2022-10-18T09:32:26;18.12;80.48
65972;SHT31;52726;48.852;9.152;2022-10-18T09:34:58;18.01;79.15
65972;SHT31;52726;48.852;9.152;2022-10-18T09:37:28;18.04;78.75
65972;SHT31;52726;48.852;9.152;2022-10-18T09:40:03;18.00;79.05
65972;SHT31;52726;48.852;9.152;2022-10-18T09:42:39;18.02;79.49
65972;SHT31;52726;48.852;9.152;2022-10-18T09:45:19;18.02;79.86
65972;SHT31;52726;48.852;9.152;2022-10-18T09:47:59;18.06;79.45
65972;SHT31;52726;48.852;9.152;2022-10-18T09:50:38;18.02;79.85
65972;SHT31;52726;48.852;9.152;2022-10-18T09:53:12;17.97;79.01
65972;SHT31;52726;48.852;9.152;2022-10-18T09:56:04;18.04;79.76
65972;SHT31;52726;48.852;9.152;2022-10-18T09:58:41;18.05;80.80
65972;SHT31;52726;48.852;9.152;2022-10-18T10:01:07;18.15;80.83
65972;SHT31;52726;48.852;9.152;2022-10-18T10:03:33;18.13;80.17
65972;SHT31;52726;48.852;9.152;2022-10-18T10:08:39;18.15;81.93
65972;SHT31;52726;48.852;9.152;2022-10-18T10:11:28;18.30;81.54
65972;SHT31;52726;48.852;9.152;2022-10-18T10:16:32;18.43;80.91
65972;SHT31;52726;48.852;9.152;2022-10-18T10:18:57;18.52;81.89
65972;SHT31;52726;48.852;9.152;2022-10-18T10:21:23;18.59;80.70
65972;SHT31;52726;48.852;9.152;2022-10-18T10:23:53;18.60;78.77
65972;SHT31;52726;48.852;9.152;2022-10-18T10:26:23;18.71;78.39
65972;SHT31;52726;48.852;9.152;2022-10-18T10:28:49;18.80;78.12
65972;SHT31;52726;48.852;9.152;2022-10-18T10:31:35;19.01;78.99
65972;SHT31;52726;48.852;9.152;2022-10-18T10:34:05;19.12;77.41
65972;SHT31;52726;48.852;9.152;2022-10-18T10:36:31;19.16;78.19
65972;SHT31;52726;48.852;9.152;2022-10-18T10:39:10;19.18;78.08
65972;SHT31;52726;48.852;9.152;2022-10-18T10:41:37;19.22;77.52
65972;SHT31;52726;48.852;9.152;2022-10-18T10:44:04;19.24;77.40
65972;SHT31;52726;48.852;9.152;2022-10-18T10:46:38;19.24;77.64
65972;SHT31;52726;48.852;9.152;2022-10-18T10:49:03;19.46;77.34
65972;SHT31;52726;48.852;9.152;2022-10-18T10:51:33;19.53;77.19
65972;SHT31;52726;48.852;9.152;2022-10-18T10:54:14;19.76;77.54
65972;SHT31;52726;48.852;9.152;2022-10-18T10:56:57;19.91;75.72
65972;SHT31;52726;48.852;9.152;2022-10-18T10:59:25;20.06;74.93
65972;SHT31;52726;48.852;9.152;2022-10-18T11:02:15;20.25;73.99
65972;SHT31;52726;48.852;9.152;2022-10-18T11:04:45;20.38;74.05
65972;SHT31;52726;48.852;9.152;2022-10-18T11:12:37;20.47;75.40
65972;SHT31;52726;48.852;9.152;2022-10-18T11:15:13;20.37;74.37
65972;SHT31;52726;48.852;9.152;2022-10-18T11:20:23;20.37;74.01
65972;SHT31;52726;48.852;9.152;2022-10-18T11:22:59;20.49;74.81
65972;SHT31;52726;48.852;9.152;2022-10-18T11:28:31;20.66;73.21
65972;SHT31;52726;48.852;9.152;2022-10-18T11:31:37;20.56;74.28
65972;SHT31;52726;48.852;9.152;2022-10-18T11:36:51;20.48;73.59
65972;SHT31;52726;48.852;9.152;2022-10-18T11:39:36;20.27;73.91
65972;SHT31;52726;48.852;9.152;2022-10-18T11:50:21;20.11;74.18
65972;SHT31;52726;48.852;9.152;2022-10-18T11:56:12;20.39;74.66
65972;SHT31;52726;48.852;9.152;2022-10-18T11:58:51;20.47;72.96
65972;SHT31;52726;48.852;9.152;2022-10-18T12:01:54;20.32;73.49
65972;SHT31;52726;48.852;9.152;2022-10-18T12:04:35;20.47;73.62
65972;SHT31;52726;48.852;9.152;2022-10-18T12:07:04;20.45;72.81
65972;SHT31;52726;48.852;9.152;2022-10-18T12:09:39;20.51;72.51
65972;SHT31;52726;48.852;9.152;2022-10-18T12:12:06;20.51;72.50
65972;SHT31;52726;48.852;9.152;2022-10-18T12:14:40;20.53;72.97
65972;SHT31;52726;48.852;9.152;2022-10-18T12:17:11;20.42;73.94
65972;SHT31;52726;48.852;9.152;2022-10-18T12:19:42;20.45;72.93
65972;SHT31;52726;48.852;9.152;2022-10-18T12:24:40;20.82;74.95
65972;SHT31;52726;48.852;9.152;2022-10-18T12:27:10;20.93;75.61
65972;SHT31;52726;48.852;9.152;2022-10-18T12:29:50;20.83;73.89
65972;SHT31;52726;48.852;9.152;2022-10-18T12:32:26;20.55;75.37
65972;SHT31;52726;48.852;9.152;2022-10-18T12:34:57;20.52;75.82
65972;SHT31;52726;48.852;9.152;2022-10-18T12:37:39;20.37;75.77
65972;SHT31;52726;48.852;9.152;2022-10-18T12:40:15;20.21;76.02
65972;SHT31;52726;48.852;9.152;2022-10-18T12:42:46;20.10;76.44
65972;SHT31;52726;48.852;9.152;2022-10-18T12:47:38;20.11;76.26
65972;SHT31;52726;48.852;9.152;2022-10-18T12:55:53;20.38;73.91
65972;SHT31;52726;48.852;9.152;2022-10-18T13:06:04;20.66;75.59
65972;SHT31;52726;48.852;9.152;2022-10-18T13:09:16;20.69;72.91
65972;SHT31;52726;48.852;9.152;2022-10-18T13:41:06;20.31;76.59
65972;SHT31;52726;48.852;9.152;2022-10-18T13:46:17;20.11;76.24
65972;SHT31;52726;48.852;9.152;2022-10-18T13:48:53;20.18;77.20
65972;SHT31;52726;48.852;9.152;2022-10-18T13:54:20;20.62;76.53
65972;SHT31;52726;48.852;9.152;2022-10-18T13:59:37;20.72;76.72
65972;SHT31;52726;48.852;9.152;2022-10-18T14:05:18;20.65;75.91
65972;SHT31;52726;48.852;9.152;2022-10-18T14:07:48;20.47;75.65
65972;SHT31;52726;48.852;9.152;2022-10-18T14:10:27;20.48;76.05
65972;SHT31;52726;48.852;9.152;2022-10-18T14:12:57;20.47;74.86
65972;SHT31;52726;48.852;9.152;2022-10-18T14:15:33;20.24;75.60
65972;SHT31;52726;48.852;9.152;2022-10-18T14:18:04;20.08;75.56
65972;SHT31;52726;48.852;9.152;2022-10-18T14:20:35;20.01;77.08
65972;SHT31;52726;48.852;9.152;2022-10-18T14:23:07;20.00;77.33
65972;SHT31;52726;48.852;9.152;2022-10-18T14:28:39;19.90;78.21
65972;SHT31;52726;48.852;9.152;2022-10-18T14:31:10;19.86;78.35
65972;SHT31;52726;48.852;9.152;2022-10-18T14:36:29;19.72;78.57
65972;SHT31;52726;48.852;9.152;2022-10-18T14:38:59;19.63;78.86
65972;SHT31;52726;48.852;9.152;2022-10-18T14:41:36;19.58;79.92
65972;SHT31;52726;48.852;9.152;2022-10-18T14:44:29;19.49;79.76
65972;SHT31;52726;48.852;9.152;2022-10-18T14:47:14;19.45;80.46
65972;SHT31;52726;48.852;9.152;2022-10-18T14:49:44;19.39;80.64
65972;SHT31;52726;48.852;9.152;2022-10-18T14:52:39;19.36;79.97
65972;SHT31;52726;48.852;9.152;2022-10-18T14:55:05;19.31;80.53
65972;SHT31;52726;48.852;9.152;2022-10-18T15:00:54;19.36;80.50
65972;SHT31;52726;48.852;9.152;2022-10-18T15:03:19;19.36;79.98
65972;SHT31;52726;48.852;9.152;2022-10-18T15:10:09;19.29;80.63
65972;SHT31;52726;48.852;9.152;2022-10-18T15:16:00;19.21;80.42
65972;SHT31;52726;48.852;9.152;2022-10-18T15:18:31;19.11;80.73
65972;SHT31;52726;48.852;9.152;2022-10-18T15:27:58;18.91;81.07
65972;SHT31;52726;48.852;9.152;2022-10-18T15:37:14;18.77;81.90
65972;SHT31;52726;48.852;9.152;2022-10-18T15:39:40;18.74;81.72
65972;SHT31;52726;48.852;9.152;2022-10-18T15:42:05;18.71;81.90
65972;SHT31;52726;48.852;9.152;2022-10-18T15:44:48;18.68;81.42
65972;SHT31;52726;48.852;9.152;2022-10-18T15:47:17;18.70;82.35
65972;SHT31;52726;48.852;9.152;2022-10-18T15:49:51;18.66;81.43
65972;SHT31;52726;48.852;9.152;2022-10-18T15:52:35;18.64;81.35
65972;SHT31;52726;48.852;9.152;2022-10-18T15:58:10;18.60;81.97
65972;SHT31;52726;48.852;9.152;2022-10-18T16:00:36;18.56;82.01
65972;SHT31;52726;48.852;9.152;2022-10-18T16:03:02;18.55;82.14
65972;SHT31;52726;48.852;9.152;2022-10-18T16:05:27;18.52;81.99
65972;SHT31;52726;48.852;9.152;2022-10-18T16:07:53;18.49;82.10
65972;SHT31;52726;48.852;9.152;2022-10-18T16:10:19;18.49;81.43
65972;SHT31;52726;48.852;9.152;2022-10-18T16:12:44;18.47;81.57
65972;SHT31;52726;48.852;9.152;2022-10-18T16:15:10;18.46;81.79
65972;SHT31;52726;48.852;9.152;2022-10-18T16:17:35;18.42;81.90
65972;SHT31;52726;48.852;9.152;2022-10-18T16:20:01;18.38;82.22
65972;SHT31;52726;48.852;9.152;2022-10-18T16:22:27;18.32;82.75
65972;SHT31;52726;48.852;9.152;2022-10-18T16:24:52;18.25;82.94
65972;SHT31;52726;48.852;9.152;2022-10-18T16:27:17;18.19;83.32
65972;SHT31;52726;48.852;9.152;2022-10-18T16:32:54;18.13;82.94
65972;SHT31;52726;48.852;9.152;2022-10-18T16:38:51;18.05;83.18
65972;SHT31;52726;48.852;9.152;2022-10-18T16:41:19;18.05;82.82
65972;SHT31;52726;48.852;9.152;2022-10-18T16:43:46;18.05;82.77
65972;SHT31;52726;48.852;9.152;2022-10-18T16:48:46;18.02;82.94
65972;SHT31;52726;48.852;9.152;2022-10-18T16:51:12;17.98;82.91
65972;SHT31;52726;48.852;9.152;2022-10-18T16:53:38;17.95;82.74
65972;SHT31;52726;48.852;9.152;2022-10-18T16:56:04;17.92;83.12
65972;SHT31;52726;48.852;9.152;2022-10-18T16:58:31;17.85;83.43
65972;SHT31;52726;48.852;9.152;2022-10-18T17:00:57;17.82;83.36
65972;SHT31;52726;48.852;9.152;2022-10-18T17:03:24;17.75;83.37
65972;SHT31;52726;48.852;9.152;2022-10-18T17:05:50;17.75;83.28
65972;SHT31;52726;48.852;9.152;2022-10-18T17:08:18;17.70;83.51
65972;SHT31;52726;48.852;9.152;2022-10-18T17:10:45;17.60;84.03
65972;SHT31;52726;48.852;9.152;2022-10-18T17:13:10;17.55;83.95
65972;SHT31;52726;48.852;9.152;2022-10-18T17:15:37;17.50;83.89
65972;SHT31;52726;48.852;9.152;2022-10-18T17:18:05;17.46;83.86
65972;SHT31;52726;48.852;9.152;2022-10-18T17:21:12;17.44;83.98
65972;SHT31;52726;48.852;9.152;2022-10-18T17:23:37;17.42;84.31
65972;SHT31;52726;48.852;9.152;2022-10-18T17:26:03;17.40;84.80
65972;SHT31;52726;48.852;9.152;2022-10-18T17:31:40;17.23;86.18
65972;SHT31;52726;48.852;9.152;2022-10-18T17:34:06;17.14;86.66
65972;SHT31;52726;48.852;9.152;2022-10-18T17:36:33;17.02;86.86
65972;SHT31;52726;48.852;9.152;2022-10-18T17:38:58;16.99;87.20
65972;SHT31;52726;48.852;9.152;2022-10-18T17:41:24;16.92;87.64
65972;SHT31;52726;48.852;9.152;2022-10-18T17:43:50;16.88;87.62
65972;SHT31;52726;48.852;9.152;2022-10-18T17:50:38;16.72;87.95
65972;SHT31;52726;48.852;9.152;2022-10-18T17:53:28;16.65;88.02
65972;SHT31;52726;48.852;9.152;2022-10-18T17:56:42;16.58;88.29
65972;SHT31;52726;48.852;9.152;2022-10-18T17:59:31;16.51;88.53
65972;SHT31;52726;48.852;9.152;2022-10-18T18:01:57;16.46;88.56
65972;SHT31;52726;48.852;9.152;2022-10-18T18:04:22;16.46;88.53
65972;SHT31;52726;48.852;9.152;2022-10-18T18:06:49;16.43;88.60
65972;SHT31;52726;48.852;9.152;2022-10-18T18:09:16;16.41;88.74
65972;SHT31;52726;48.852;9.152;2022-10-18T18:11:44;16.37;88.69
65972;SHT31;52726;48.852;9.152;2022-10-18T18:14:11;16.34;88.60
65972;SHT31;52726;48.852;9.152;2022-10-18T18:16:38;16.29;89.21
65972;SHT31;52726;48.852;9.152;2022-10-18T18:19:05;16.23;89.19
65972;SHT31;52726;48.852;9.152;2022-10-18T18:21:31;16.19;89.31
65972;SHT31;52726;48.852;9.152;2022-10-18T18:23:57;16.12;89.51
65972;SHT31;52726;48.852;9.152;2022-10-18T18:26:23;16.10;89.49
65972;SHT31;52726;48.852;9.152;2022-10-18T18:28:48;16.08;89.63
65972;SHT31;52726;48.852;9.152;2022-10-18T18:31:19;16.02;89.72
65972;SHT31;52726;48.852;9.152;2022-10-18T18:33:48;15.98;89.54
65972;SHT31;52726;48.852;9.152;2022-10-18T18:36:13;15.91;89.99
65972;SHT31;52726;48.852;9.152;2022-10-18T18:38:39;15.82;90.02
65972;SHT31;52726;48.852;9.152;2022-10-18T18:41:15;15.74;90.27
65972;SHT31;52726;48.852;9.152;2022-10-18T18:43:42;15.64;90.47
65972;SHT31;52726;48.852;9.152;2022-10-18T18:46:09;15.55;90.53
65972;SHT31;52726;48.852;9.152;2022-10-18T18:48:35;15.45;90.70
65972;SHT31;52726;48.852;9.152;2022-10-18T18:51:02;15.43;91.29
65972;SHT31;52726;48.852;9.152;2022-10-18T18:53:28;15.36;91.30